createdAt,value
2017-04-16T00:00:17.538Z,19.61
2017-04-16T00:01:15.437Z,18.21
2017-04-16T00:02:13.362Z,19.57
2017-04-16T00:03:11.276Z,15.14
2017-04-16T00:04:09.193Z,17.99
2017-04-16T00:05:07.171Z,19.03
2017-04-16T00:06:05.026Z,20.20
2017-04-16T00:07:02.837Z,19.64
2017-04-16T00:08:00.651Z,18.92
2017-04-16T00:08:58.478Z,18.76
2017-04-16T00:09:56.493Z,15.47
2017-04-16T00:10:55.654Z,21.41
2017-04-16T00:11:53.595Z,19.43
2017-04-16T00:12:51.522Z,16.87
2017-04-16T00:13:49.656Z,15.06
2017-04-16T00:14:47.827Z,21.04
2017-04-16T00:15:45.845Z,17.11
2017-04-16T00:16:44.812Z,15.10
2017-04-16T00:17:43.031Z,16.61
2017-04-16T00:18:40.920Z,17.73
2017-04-16T00:19:39.421Z,14.36
2017-04-16T00:20:37.520Z,18.93
2017-04-16T00:21:36.092Z,18.13
2017-04-16T00:22:33.935Z,14.94
2017-04-16T00:23:32.361Z,16.40
2017-04-16T00:24:30.241Z,17.26
2017-04-16T00:25:28.119Z,18.53
2017-04-16T00:26:26.004Z,20.30
2017-04-16T00:27:24.347Z,19.79
2017-04-16T00:28:22.443Z,20.47
2017-04-16T00:29:20.284Z,18.80
2017-04-16T00:30:18.216Z,20.73
2017-04-16T00:31:16.100Z,20.41
2017-04-16T00:32:14.021Z,19.80
2017-04-16T00:33:11.947Z,20.39
2017-04-16T00:34:09.833Z,21.60
2017-04-16T00:35:07.721Z,21.74
2017-04-16T00:36:05.631Z,20.39
2017-04-16T00:37:03.677Z,23.57
2017-04-16T00:38:01.743Z,22.19
2017-04-16T00:39:00.503Z,20.40
2017-04-16T00:39:58.464Z,20.73
2017-04-16T00:40:57.033Z,23.54
2017-04-16T00:41:55.004Z,27.13
2017-04-16T00:42:53.623Z,20.43
2017-04-16T00:43:51.549Z,19.43
2017-04-16T00:44:50.819Z,19.37
2017-04-16T00:45:48.708Z,20.70
2017-04-16T00:46:46.587Z,23.97
2017-04-16T00:47:44.486Z,19.86
2017-04-16T00:48:42.441Z,23.42
2017-04-16T00:49:40.389Z,23.17
2017-04-16T00:50:38.300Z,23.66
2017-04-16T00:51:36.177Z,23.59
2017-04-16T00:52:34.081Z,18.90
2017-04-16T00:53:32.306Z,25.59
2017-04-16T00:54:30.145Z,26.54
2017-04-16T00:55:28.016Z,17.87
2017-04-16T00:56:25.878Z,24.97
2017-04-16T00:57:23.867Z,26.51
2017-04-16T00:58:21.754Z,24.54
2017-04-16T00:59:20.686Z,21.96
2017-04-16T01:00:19.680Z,20.31
2017-04-16T01:03:29.377Z,23.67
2017-04-16T01:04:27.254Z,26.30
2017-04-16T01:05:25.150Z,21.04
2017-04-16T01:06:23.219Z,19.94
2017-04-16T01:07:21.179Z,21.19
2017-04-16T01:08:19.091Z,22.60
2017-04-16T01:09:17.029Z,19.41
2017-04-16T01:10:14.956Z,20.40
2017-04-16T01:11:12.871Z,19.57
2017-04-16T01:12:10.836Z,21.09
2017-04-16T01:13:08.672Z,19.46
2017-04-16T01:14:06.485Z,17.86
2017-04-16T01:15:04.356Z,20.10
2017-04-16T01:16:02.179Z,21.59
2017-04-16T01:17:00.106Z,22.09
2017-04-16T01:17:57.972Z,19.66
2017-04-16T01:18:55.842Z,18.56
2017-04-16T01:19:53.723Z,23.67
2017-04-16T01:20:51.694Z,25.89
2017-04-16T01:21:49.719Z,24.11
2017-04-16T01:22:47.644Z,17.95
2017-04-16T01:23:45.735Z,18.96
2017-04-16T01:24:43.777Z,19.60
2017-04-16T01:25:41.659Z,18.84
2017-04-16T01:26:39.521Z,18.76
2017-04-16T01:27:37.464Z,21.89
2017-04-16T01:28:35.386Z,27.43
2017-04-16T01:29:33.327Z,21.00
2017-04-16T01:30:31.208Z,21.47
2017-04-16T01:31:30.434Z,28.17
2017-04-16T01:32:28.338Z,23.19
2017-04-16T01:33:26.227Z,25.73
2017-04-16T01:34:24.168Z,20.99
2017-04-16T01:35:22.037Z,26.17
2017-04-16T01:36:19.856Z,22.93
2017-04-16T01:37:17.730Z,21.52
2017-04-16T01:38:15.641Z,19.89
2017-04-16T01:39:14.258Z,18.91
2017-04-16T01:40:12.195Z,23.23
2017-04-16T01:41:10.564Z,18.06
2017-04-16T01:42:08.452Z,22.30
2017-04-16T01:43:06.359Z,22.11
2017-04-16T01:44:04.232Z,16.03
2017-04-16T01:45:02.185Z,20.53
2017-04-16T01:46:00.455Z,17.90
2017-04-16T01:46:58.348Z,17.56
2017-04-16T01:47:56.278Z,15.47
2017-04-16T01:48:54.166Z,20.79
2017-04-16T01:49:52.334Z,18.36
2017-04-16T01:50:50.239Z,19.29
2017-04-16T01:51:48.143Z,18.69
2017-04-16T01:52:45.976Z,16.83
2017-04-16T01:53:43.815Z,21.57
2017-04-16T01:54:41.721Z,19.73
2017-04-16T01:55:39.550Z,21.16
2017-04-16T01:56:37.359Z,17.25
2017-04-16T01:57:35.240Z,22.26
2017-04-16T01:58:33.491Z,18.16
2017-04-16T01:59:31.539Z,23.97
2017-04-16T02:00:29.424Z,17.24
2017-04-16T02:01:27.316Z,22.36
2017-04-16T02:02:25.232Z,16.94
2017-04-16T02:03:23.131Z,20.90
2017-04-16T02:04:21.052Z,24.32
2017-04-16T02:05:19.008Z,18.94
2017-04-16T02:06:16.869Z,21.77
2017-04-16T02:07:17.854Z,18.50
2017-04-16T02:08:15.713Z,16.37
2017-04-16T02:09:13.695Z,19.14
2017-04-16T02:10:11.598Z,21.46
2017-04-16T02:11:09.484Z,24.26
2017-04-16T02:12:07.383Z,15.17
2017-04-16T02:13:05.213Z,19.00
2017-04-16T02:14:03.044Z,16.81
2017-04-16T02:15:01.020Z,16.94
2017-04-16T02:15:58.897Z,17.90
2017-04-16T02:16:56.764Z,23.33
2017-04-16T02:17:54.652Z,19.67
2017-04-16T02:18:52.665Z,21.90
2017-04-16T02:19:50.639Z,18.87
2017-04-16T02:20:48.523Z,19.07
2017-04-16T02:21:46.421Z,16.39
2017-04-16T02:22:44.244Z,17.99
2017-04-16T02:23:42.223Z,15.79
2017-04-16T02:24:40.085Z,19.69
2017-04-16T02:25:38.176Z,23.13
2017-04-16T02:26:36.037Z,18.20
2017-04-16T02:27:33.900Z,20.54
2017-04-16T02:28:31.736Z,22.44
2017-04-16T02:29:29.692Z,18.72
2017-04-16T02:30:27.512Z,18.14
2017-04-16T02:31:25.383Z,19.79
2017-04-16T02:32:23.247Z,18.56
2017-04-16T02:33:21.063Z,18.91
2017-04-16T02:34:18.951Z,21.03
2017-04-16T02:35:16.902Z,20.96
2017-04-16T02:36:14.750Z,20.81
2017-04-16T02:37:12.642Z,19.04
2017-04-16T02:38:10.508Z,22.44
2017-04-16T02:39:08.424Z,17.81
2017-04-16T02:40:06.348Z,17.64
2017-04-16T02:41:04.223Z,18.07
2017-04-16T02:42:02.128Z,19.77
2017-04-16T02:42:59.973Z,14.63
2017-04-16T02:43:57.866Z,19.74
2017-04-16T02:44:55.762Z,19.16
2017-04-16T02:45:53.652Z,20.89
2017-04-16T02:46:51.569Z,19.37
2017-04-16T02:47:49.424Z,20.86
2017-04-16T02:48:47.256Z,18.26
2017-04-16T02:49:45.132Z,20.41
2017-04-16T02:50:43.240Z,22.34
2017-04-16T02:51:41.132Z,16.86
2017-04-16T02:52:38.996Z,16.83
2017-04-16T02:53:36.852Z,17.63
2017-04-16T02:54:34.739Z,22.24
2017-04-16T02:55:32.613Z,15.99
2017-04-16T02:56:30.486Z,17.88
2017-04-16T02:57:28.491Z,21.51
2017-04-16T02:58:26.337Z,21.77
2017-04-16T02:59:24.192Z,20.83
2017-04-16T03:00:22.104Z,20.31
2017-04-16T03:01:20.154Z,18.64
2017-04-16T03:02:18.212Z,20.21
2017-04-16T03:03:16.143Z,17.09
2017-04-16T03:04:13.983Z,19.93
2017-04-16T03:05:12.107Z,19.23
2017-04-16T03:06:09.964Z,17.23
2017-04-16T03:07:07.859Z,19.73
2017-04-16T03:08:05.773Z,21.67
2017-04-16T03:09:03.860Z,17.19
2017-04-16T03:10:01.688Z,21.01
2017-04-16T03:10:59.596Z,15.47
2017-04-16T03:11:57.413Z,20.26
2017-04-16T03:12:55.348Z,16.76
2017-04-16T03:13:53.188Z,19.03
2017-04-16T03:14:51.075Z,20.81
2017-04-16T03:15:48.994Z,16.63
2017-04-16T03:16:46.837Z,17.66
2017-04-16T03:17:44.659Z,22.99
2017-04-16T03:18:42.480Z,22.43
2017-04-16T03:19:40.423Z,21.30
2017-04-16T03:20:38.314Z,22.23
2017-04-16T03:21:36.184Z,16.63
2017-04-16T03:22:34.011Z,15.26
2017-04-16T03:23:31.853Z,19.21
2017-04-16T03:24:29.756Z,15.33
2017-04-16T03:25:27.640Z,19.34
2017-04-16T03:26:25.545Z,18.57
2017-04-16T03:27:23.485Z,15.74
2017-04-16T03:28:21.362Z,25.01
2017-04-16T03:29:19.204Z,17.53
2017-04-16T03:30:17.075Z,17.86
2017-04-16T03:31:14.896Z,18.99
2017-04-16T03:32:12.768Z,17.91
2017-04-16T03:33:10.600Z,15.67
2017-04-16T03:34:08.512Z,16.08
2017-04-16T03:35:06.424Z,14.90
2017-04-16T03:36:04.997Z,16.10
2017-04-16T03:37:02.852Z,16.79
2017-04-16T03:38:00.731Z,16.64
2017-04-16T03:38:58.637Z,15.77
2017-04-16T03:39:56.544Z,19.23
2017-04-16T03:40:54.475Z,16.46
2017-04-16T03:41:52.342Z,14.13
2017-04-16T03:42:50.235Z,14.74
2017-04-16T03:43:48.106Z,17.84
2017-04-16T03:44:45.983Z,16.70
2017-04-16T03:45:43.858Z,15.67
2017-04-16T03:46:41.771Z,17.27
2017-04-16T03:47:39.664Z,14.39
2017-04-16T03:48:37.532Z,18.75
2017-04-16T03:49:35.419Z,16.26
2017-04-16T03:50:33.289Z,13.91
2017-04-16T03:51:31.179Z,16.14
2017-04-16T03:52:29.058Z,14.03
2017-04-16T03:53:26.972Z,18.73
2017-04-16T03:54:25.202Z,18.19
2017-04-16T03:55:23.250Z,14.19
2017-04-16T03:56:21.147Z,12.84
2017-04-16T03:57:19.023Z,13.37
2017-04-16T03:58:16.915Z,14.51
2017-04-16T03:59:14.817Z,13.30
2017-04-16T04:00:12.726Z,14.93
2017-04-16T04:01:10.596Z,13.88
2017-04-16T04:02:08.481Z,14.53
2017-04-16T04:03:06.348Z,12.46
2017-04-16T04:04:04.242Z,15.90
2017-04-16T04:05:02.051Z,17.27
2017-04-16T04:05:59.996Z,14.76
2017-04-16T04:06:57.880Z,16.29
2017-04-16T04:07:55.869Z,16.51
2017-04-16T04:08:53.855Z,19.99
2017-04-16T04:09:51.841Z,13.51
2017-04-16T04:10:49.741Z,16.79
2017-04-16T04:11:47.698Z,14.54
2017-04-16T04:12:45.618Z,12.70
2017-04-16T04:13:43.447Z,18.11
2017-04-16T04:14:41.433Z,16.59
2017-04-16T04:15:39.505Z,18.37
2017-04-16T04:16:37.387Z,16.24
2017-04-16T04:17:35.301Z,14.86
2017-04-16T04:18:33.579Z,14.83
2017-04-16T04:19:31.459Z,22.63
2017-04-16T04:20:29.451Z,14.91
2017-04-16T04:21:27.754Z,15.37
2017-04-16T04:22:25.644Z,19.07
2017-04-16T04:23:23.536Z,15.96
2017-04-16T04:24:21.465Z,19.39
2017-04-16T04:25:19.281Z,16.34
2017-04-16T04:26:17.188Z,17.19
2017-04-16T04:27:15.109Z,15.63
2017-04-16T04:28:12.943Z,18.47
2017-04-16T04:29:10.852Z,16.86
2017-04-16T04:30:08.719Z,16.40
2017-04-16T04:31:06.632Z,17.01
2017-04-16T04:32:04.472Z,14.06
2017-04-16T04:33:02.317Z,15.70
2017-04-16T04:34:00.154Z,18.51
2017-04-16T04:34:58.037Z,16.60
2017-04-16T04:35:55.942Z,16.31
2017-04-16T04:36:53.845Z,20.79
2017-04-16T04:37:51.725Z,17.30
2017-04-16T04:38:49.647Z,20.12
2017-04-16T04:39:47.568Z,22.18
2017-04-16T04:40:45.465Z,21.80
2017-04-16T04:41:43.319Z,17.91
2017-04-16T04:42:41.257Z,18.34
2017-04-16T04:43:39.090Z,18.74
2017-04-16T04:44:36.968Z,20.60
2017-04-16T04:45:34.810Z,20.47
2017-04-16T04:46:32.721Z,17.81
2017-04-16T04:47:30.826Z,17.74
2017-04-16T04:48:28.732Z,17.77
2017-04-16T04:49:26.558Z,20.93
2017-04-16T04:50:24.645Z,21.91
2017-04-16T04:51:22.472Z,20.12
2017-04-16T04:52:20.412Z,22.91
2017-04-16T04:53:18.364Z,19.49
2017-04-16T04:54:16.187Z,22.97
2017-04-16T04:55:14.244Z,21.96
2017-04-16T04:56:12.424Z,21.09
2017-04-16T04:57:10.324Z,21.07
2017-04-16T04:58:08.240Z,26.17
2017-04-16T04:59:06.185Z,23.01
2017-04-16T05:00:04.135Z,20.42
2017-04-16T05:01:02.120Z,22.57
2017-04-16T05:02:00.011Z,22.46
2017-04-16T05:02:57.922Z,23.48
2017-04-16T05:03:55.787Z,20.96
2017-04-16T05:04:53.604Z,27.97
2017-04-16T05:05:51.500Z,24.60
2017-04-16T05:06:49.407Z,25.77
2017-04-16T05:07:47.292Z,22.83
2017-04-16T05:08:45.183Z,23.80
2017-04-16T05:09:43.124Z,25.24
2017-04-16T05:10:41.351Z,29.74
2017-04-16T05:11:39.255Z,24.80
2017-04-16T05:12:37.049Z,22.74
2017-04-16T05:13:34.951Z,27.90
2017-04-16T05:14:32.867Z,24.33
2017-04-16T05:15:30.715Z,23.19
2017-04-16T05:16:28.647Z,25.84
2017-04-16T05:17:26.508Z,27.00
2017-04-16T05:18:24.391Z,24.50
2017-04-16T05:19:22.236Z,25.30
2017-04-16T05:20:20.100Z,24.33
2017-04-16T05:21:18.030Z,23.23
2017-04-16T05:22:15.893Z,23.37
2017-04-16T05:23:13.804Z,27.02
2017-04-16T05:24:11.639Z,25.99
2017-04-16T05:25:09.512Z,24.61
2017-04-16T05:26:07.353Z,27.49
2017-04-16T05:27:05.253Z,24.31
2017-04-16T05:28:03.130Z,24.01
2017-04-16T05:29:01.269Z,25.57
2017-04-16T05:29:59.128Z,23.46
2017-04-16T05:30:57.085Z,28.63
2017-04-16T05:31:55.001Z,22.74
2017-04-16T05:32:52.900Z,27.21
2017-04-16T05:33:50.723Z,23.93
2017-04-16T05:34:48.636Z,21.21
2017-04-16T05:35:46.487Z,23.03
2017-04-16T05:36:44.360Z,20.56
2017-04-16T05:37:42.316Z,21.40
2017-04-16T05:38:40.381Z,29.97
2017-04-16T05:39:38.249Z,22.43
2017-04-16T05:40:36.095Z,22.61
2017-04-16T05:41:33.954Z,24.59
2017-04-16T05:42:31.808Z,23.70
2017-04-16T05:43:29.708Z,27.03
2017-04-16T05:44:27.594Z,24.50
2017-04-16T05:45:25.451Z,21.16
2017-04-16T05:46:23.515Z,22.93
2017-04-16T05:47:21.380Z,22.04
2017-04-16T05:48:19.276Z,25.76
2017-04-16T05:49:17.187Z,24.29
2017-04-16T05:50:15.061Z,26.86
2017-04-16T05:51:12.891Z,24.69
2017-04-16T05:52:10.772Z,22.09
2017-04-16T05:53:08.653Z,27.36
2017-04-16T05:54:06.592Z,25.03
2017-04-16T05:55:04.483Z,25.27
2017-04-16T05:56:02.356Z,23.56
2017-04-16T05:57:00.266Z,25.59
2017-04-16T05:57:58.229Z,26.47
2017-04-16T05:58:56.128Z,22.01
2017-04-16T05:59:53.974Z,27.13
2017-04-16T06:00:51.828Z,23.09
2017-04-16T06:01:49.729Z,20.84
2017-04-16T06:02:47.604Z,24.49
2017-04-16T06:03:45.589Z,20.69
2017-04-16T06:04:43.418Z,22.27
2017-04-16T06:05:41.297Z,20.17
2017-04-16T06:06:39.125Z,24.43
2017-04-16T06:07:36.964Z,22.16
2017-04-16T06:08:34.821Z,18.83
2017-04-16T06:09:32.756Z,28.84
2017-04-16T06:10:30.631Z,22.13
2017-04-16T06:11:28.524Z,21.30
2017-04-16T06:12:26.423Z,23.46
2017-04-16T06:13:24.280Z,23.71
2017-04-16T06:14:22.164Z,24.06
2017-04-16T06:15:20.096Z,20.39
2017-04-16T06:16:17.991Z,24.31
2017-04-16T06:17:16.061Z,28.34
2017-04-16T06:18:13.941Z,18.89
2017-04-16T06:19:11.828Z,21.47
2017-04-16T06:20:09.728Z,19.53
2017-04-16T06:21:07.616Z,19.47
2017-04-16T06:22:05.543Z,23.20
2017-04-16T06:23:03.660Z,19.50
2017-04-16T06:24:01.570Z,21.46
2017-04-16T06:24:59.531Z,24.20
2017-04-16T06:25:57.416Z,23.80
2017-04-16T06:26:55.356Z,21.87
2017-04-16T06:27:53.308Z,25.49
2017-04-16T06:28:51.206Z,29.67
2017-04-16T06:29:49.078Z,26.79
2017-04-16T06:30:47.353Z,22.14
2017-04-16T06:31:45.252Z,29.87
2017-04-16T06:32:43.116Z,19.56
2017-04-16T06:33:41.033Z,25.90
2017-04-16T06:34:38.902Z,21.46
2017-04-16T06:35:36.780Z,20.69
2017-04-16T06:36:34.641Z,20.13
2017-04-16T06:37:32.544Z,23.16
2017-04-16T06:38:31.361Z,22.16
2017-04-16T06:39:29.194Z,25.37
2017-04-16T06:40:27.047Z,22.91
2017-04-16T06:41:24.883Z,18.37
2017-04-16T06:42:22.727Z,22.19
2017-04-16T06:43:20.573Z,21.79
2017-04-16T06:44:18.431Z,21.67
2017-04-16T06:45:16.266Z,22.76
2017-04-16T06:46:14.105Z,26.47
2017-04-16T06:47:11.925Z,19.67
2017-04-16T06:48:09.831Z,22.24
2017-04-16T06:49:07.696Z,20.19
2017-04-16T06:50:05.531Z,20.04
2017-04-16T06:51:03.459Z,18.76
2017-04-16T06:52:01.331Z,24.99
2017-04-16T06:52:59.290Z,18.71
2017-04-16T06:53:57.140Z,28.39
2017-04-16T06:54:54.972Z,20.36
2017-04-16T06:55:52.916Z,24.26
2017-04-16T06:56:50.756Z,20.17
2017-04-16T06:57:48.630Z,22.46
2017-04-16T06:58:46.484Z,19.16
2017-04-16T06:59:44.440Z,19.60
2017-04-16T07:00:42.324Z,24.13
2017-04-16T07:01:40.183Z,24.06
2017-04-16T07:02:38.032Z,19.37
2017-04-16T07:03:38.765Z,24.59
2017-04-16T07:04:36.664Z,20.41
2017-04-16T07:05:35.308Z,19.70
2017-04-16T07:06:33.141Z,17.86
2017-04-16T07:07:30.996Z,22.50
2017-04-16T07:08:28.901Z,22.34
2017-04-16T07:09:26.701Z,22.69
2017-04-16T07:10:24.610Z,19.43
2017-04-16T07:11:22.439Z,20.69
2017-04-16T07:12:20.454Z,18.84
2017-04-16T07:13:18.302Z,23.89
2017-04-16T07:14:16.117Z,23.23
2017-04-16T07:15:14.008Z,24.51
2017-04-16T07:16:11.840Z,21.30
2017-04-16T07:17:09.832Z,26.37
2017-04-16T07:18:07.723Z,25.53
2017-04-16T07:19:05.549Z,20.61
2017-04-16T07:20:03.437Z,26.11
2017-04-16T07:21:01.296Z,24.73
2017-04-16T07:21:59.186Z,19.89
2017-04-16T07:22:57.101Z,19.59
2017-04-16T07:23:54.963Z,20.00
2017-04-16T07:24:52.797Z,18.33
2017-04-16T07:25:50.725Z,18.53
2017-04-16T07:26:48.565Z,24.61
2017-04-16T07:27:46.413Z,19.01
2017-04-16T07:28:46.475Z,24.90
2017-04-16T07:29:46.448Z,20.69
2017-04-16T07:30:49.076Z,19.24
2017-04-16T07:31:51.739Z,17.26
2017-04-16T07:32:51.706Z,17.41
2017-04-16T07:33:49.661Z,18.50
2017-04-16T07:34:47.589Z,22.56
2017-04-16T07:35:45.490Z,19.10
2017-04-16T07:36:43.312Z,18.87
2017-04-16T07:37:41.113Z,20.84
2017-04-16T07:38:39.071Z,21.90
2017-04-16T07:39:36.935Z,19.29
2017-04-16T07:40:34.858Z,18.67
2017-04-16T07:41:32.760Z,22.91
2017-04-16T07:42:30.614Z,19.37
2017-04-16T07:43:28.496Z,16.06
2017-04-16T07:44:26.453Z,22.71
2017-04-16T07:45:24.380Z,19.14
2017-04-16T07:46:22.306Z,16.53
2017-04-16T07:47:20.167Z,16.06
2017-04-16T07:48:18.107Z,21.70
2017-04-16T07:49:18.670Z,17.09
2017-04-16T07:50:16.492Z,21.19
2017-04-16T07:51:14.350Z,13.99
2017-04-16T07:52:12.216Z,18.44
2017-04-16T08:11:28.852Z,24.80
2017-04-16T08:12:27.027Z,15.69
2017-04-16T08:13:24.869Z,16.39
2017-04-16T08:14:22.744Z,21.41
2017-04-16T08:15:20.718Z,17.83
2017-04-16T08:16:18.644Z,17.76
2017-04-16T08:17:16.552Z,16.13
2017-04-16T08:18:14.388Z,19.94
2017-04-16T08:19:12.272Z,17.01
2017-04-16T08:20:10.265Z,18.70
2017-04-16T08:21:08.216Z,21.67
2017-04-16T08:22:06.473Z,19.04
2017-04-16T08:23:04.325Z,18.66
2017-04-16T08:24:04.036Z,19.86
2017-04-16T08:25:02.099Z,23.87
2017-04-16T08:25:59.956Z,15.16
2017-04-16T08:26:57.865Z,22.10
2017-04-16T08:27:55.906Z,22.10
2017-04-16T08:28:53.769Z,19.61
2017-04-16T08:29:51.593Z,18.80
2017-04-16T08:30:50.274Z,22.80
2017-04-16T08:31:48.108Z,24.87
2017-04-16T08:32:45.976Z,26.17
2017-04-16T08:33:43.844Z,28.07
2017-04-16T08:34:41.713Z,28.74
2017-04-16T08:35:39.603Z,30.31
2017-04-16T08:36:37.516Z,30.89
2017-04-16T08:37:35.367Z,32.69
2017-04-16T08:38:34.037Z,30.39
2017-04-16T08:39:31.884Z,30.23
2017-04-16T08:40:29.818Z,26.61
2017-04-16T08:41:27.683Z,24.91
2017-04-16T08:42:25.545Z,35.69
2017-04-16T08:43:23.412Z,29.46
2017-04-16T08:44:21.252Z,31.00
2017-04-16T08:45:19.074Z,29.93
2017-04-16T08:46:16.952Z,26.20
2017-04-16T08:47:14.815Z,26.24
2017-04-16T08:48:12.787Z,31.74
2017-04-16T08:49:10.603Z,34.69
2017-04-16T08:50:08.468Z,25.73
2017-04-16T08:51:06.328Z,28.26
2017-04-16T08:52:04.199Z,30.84
2017-04-16T08:53:02.205Z,33.86
2017-04-16T08:54:00.041Z,31.33
2017-04-16T08:54:58.021Z,37.71
2017-04-16T08:55:55.864Z,25.93
2017-04-16T08:56:53.756Z,29.99
2017-04-16T08:57:51.588Z,27.06
2017-04-16T08:58:49.404Z,31.30
2017-04-16T08:59:47.330Z,26.24
2017-04-16T09:00:45.156Z,26.97
2017-04-16T09:01:43.084Z,30.90
2017-04-16T09:02:40.965Z,26.19
2017-04-16T09:03:38.786Z,22.37
2017-04-16T09:04:36.691Z,34.09
2017-04-16T09:05:34.548Z,24.36
2017-04-16T09:06:32.508Z,27.17
2017-04-16T09:07:30.388Z,32.14
2017-04-16T09:08:28.357Z,22.01
2017-04-16T09:09:26.228Z,26.21
2017-04-16T09:10:24.059Z,21.19
2017-04-16T09:11:21.906Z,24.07
2017-04-16T09:12:19.780Z,29.54
2017-04-16T09:13:17.721Z,27.34
2017-04-16T09:14:15.585Z,23.47
2017-04-16T09:15:13.491Z,24.83
2017-04-16T09:16:11.341Z,24.59
2017-04-16T09:17:09.200Z,22.83
2017-04-16T09:18:07.100Z,21.87
2017-04-16T09:19:04.928Z,18.83
2017-04-16T09:20:02.869Z,26.20
2017-04-16T09:21:00.671Z,21.00
2017-04-16T09:21:58.637Z,18.11
2017-04-16T09:22:56.481Z,16.80
2017-04-16T09:23:54.336Z,15.69
2017-04-16T09:24:52.402Z,19.67
2017-04-16T09:25:50.268Z,18.97
2017-04-16T09:26:48.124Z,16.10
2017-04-16T09:27:45.963Z,15.54
2017-04-16T09:28:43.838Z,18.69
2017-04-16T09:29:41.725Z,15.96
2017-04-16T09:30:39.578Z,14.99
2017-04-16T09:31:37.465Z,24.07
2017-04-16T09:32:35.282Z,16.27
2017-04-16T09:33:33.205Z,14.99
2017-04-16T09:34:31.039Z,18.94
2017-04-16T09:35:28.992Z,16.56
2017-04-16T09:36:26.817Z,10.94
2017-04-16T09:37:24.657Z,13.73
2017-04-16T09:38:22.667Z,16.47
2017-04-16T09:39:20.529Z,15.69
2017-04-16T09:40:18.381Z,17.10
2017-04-16T09:41:16.282Z,17.21
2017-04-16T09:42:14.240Z,14.77
2017-04-16T09:43:12.077Z,17.16
2017-04-16T09:44:09.877Z,14.87
2017-04-16T09:45:07.804Z,12.76
2017-04-16T09:46:05.681Z,17.60
2017-04-16T09:47:03.613Z,16.51
2017-04-16T09:48:01.512Z,20.80
2017-04-16T09:48:59.404Z,16.07
2017-04-16T09:49:57.204Z,19.30
2017-04-16T09:50:55.061Z,15.57
2017-04-16T09:51:52.932Z,14.00
2017-04-16T09:52:50.793Z,13.09
2017-04-16T09:53:48.719Z,15.21
2017-04-16T09:54:46.587Z,22.57
2017-04-16T09:55:44.507Z,15.31
2017-04-16T09:56:42.371Z,13.47
2017-04-16T09:57:40.240Z,14.66
2017-04-16T09:58:38.114Z,9.99
2017-04-16T09:59:35.950Z,13.31
2017-04-16T10:00:33.849Z,10.81
2017-04-16T10:01:31.688Z,20.26
2017-04-16T10:02:29.808Z,14.19
2017-04-16T10:03:27.651Z,12.34
2017-04-16T10:04:25.484Z,15.23
2017-04-16T10:05:23.399Z,11.69
2017-04-16T10:06:21.253Z,15.84
2017-04-16T10:07:19.137Z,14.21
2017-04-16T10:08:16.958Z,13.83
2017-04-16T10:09:15.065Z,16.44
2017-04-16T10:10:12.912Z,14.47
2017-04-16T10:11:10.743Z,16.97
2017-04-16T10:12:08.569Z,17.43
2017-04-16T10:13:06.427Z,15.24
2017-04-16T10:14:04.371Z,15.34
2017-04-16T10:15:02.195Z,17.27
2017-04-16T10:16:00.216Z,18.51
2017-04-16T10:16:58.089Z,18.79
2017-04-16T10:17:55.970Z,19.40
2017-04-16T10:18:53.836Z,15.96
2017-04-16T10:19:51.680Z,16.54
2017-04-16T10:20:49.559Z,18.10
2017-04-16T10:21:47.396Z,17.61
2017-04-16T10:22:45.324Z,18.54
2017-04-16T10:23:43.164Z,16.57
2017-04-16T10:24:40.987Z,13.96
2017-04-16T10:25:38.860Z,19.80
2017-04-16T10:26:36.695Z,17.81
2017-04-16T10:27:34.597Z,20.20
2017-04-16T10:28:32.443Z,18.41
2017-04-16T10:29:30.381Z,14.66
2017-04-16T10:30:28.244Z,14.40
2017-04-16T10:31:28.399Z,16.04
2017-04-16T10:32:26.382Z,17.37
2017-04-16T10:33:24.268Z,13.01
2017-04-16T10:34:22.222Z,18.66
2017-04-16T10:35:20.123Z,25.36
2017-04-16T10:36:17.949Z,26.83
2017-04-16T10:37:15.776Z,17.39
2017-04-16T10:38:13.625Z,19.04
2017-04-16T10:39:11.497Z,13.30
2017-04-16T10:40:09.324Z,17.83
2017-04-16T10:41:07.157Z,14.17
2017-04-16T10:42:05.030Z,14.27
2017-04-16T10:43:02.953Z,18.33
2017-04-16T10:44:00.803Z,14.09
2017-04-16T10:44:58.634Z,25.90
2017-04-16T10:45:56.501Z,19.94
2017-04-16T10:46:54.381Z,15.33
2017-04-16T10:47:52.249Z,14.94
2017-04-16T10:48:50.198Z,20.43
2017-04-16T10:49:48.028Z,15.56
2017-04-16T10:50:45.932Z,19.24
2017-04-16T10:51:44.576Z,18.23
2017-04-16T10:52:42.413Z,16.40
2017-04-16T10:53:40.248Z,9.59
2017-04-16T10:54:38.114Z,13.49
2017-04-16T10:55:36.052Z,10.14
2017-04-16T10:56:33.943Z,6.51
2017-04-16T10:57:32.131Z,8.66
2017-04-16T10:58:29.953Z,13.93
2017-04-16T10:59:27.779Z,6.37
2017-04-16T11:00:25.855Z,6.60
2017-04-16T11:01:23.691Z,10.90
2017-04-16T11:02:21.517Z,8.96
2017-04-16T11:03:19.716Z,6.91
2017-04-16T11:04:17.569Z,11.44
2017-04-16T11:05:15.538Z,8.41
2017-04-16T11:06:13.387Z,6.67
2017-04-16T11:07:11.312Z,12.60
2017-04-16T11:08:09.149Z,6.34
2017-04-16T11:09:07.149Z,6.97
2017-04-16T11:10:05.018Z,7.06
2017-04-16T11:11:02.869Z,11.31
2017-04-16T11:12:00.823Z,5.84
2017-04-16T11:12:58.668Z,7.84
2017-04-16T11:13:56.552Z,5.73
2017-04-16T11:14:54.388Z,6.00
2017-04-16T11:15:52.353Z,6.76
2017-04-16T11:16:50.203Z,10.10
2017-04-16T11:17:48.048Z,7.07
2017-04-16T11:18:45.919Z,8.79
2017-04-16T11:19:43.738Z,6.04
2017-04-16T11:20:41.704Z,8.60
2017-04-16T11:21:39.559Z,4.91
2017-04-16T11:22:37.484Z,6.86
2017-04-16T11:23:35.364Z,9.53
2017-04-16T11:24:33.213Z,9.51
2017-04-16T11:25:31.057Z,5.36
2017-04-16T11:26:28.883Z,5.29
2017-04-16T11:27:26.887Z,4.80
2017-04-16T11:28:24.740Z,4.21
2017-04-16T11:29:22.564Z,5.11
2017-04-16T11:30:20.485Z,5.90
2017-04-16T11:31:18.372Z,3.63
2017-04-16T11:32:16.305Z,7.19
2017-04-16T11:33:14.269Z,6.96
2017-04-16T11:34:12.116Z,5.17
2017-04-16T11:35:10.001Z,5.59
2017-04-16T11:36:07.836Z,7.44
2017-04-16T11:37:05.694Z,4.91
2017-04-16T11:38:03.555Z,8.24
2017-04-16T11:39:01.359Z,4.73
2017-04-16T11:39:59.241Z,5.20
2017-04-16T11:40:57.160Z,6.44
2017-04-16T11:41:55.021Z,6.69
2017-04-16T11:42:52.931Z,10.16
2017-04-16T11:43:50.764Z,8.04
2017-04-16T11:44:48.645Z,12.46
2017-04-16T11:45:46.546Z,7.74
2017-04-16T11:46:44.384Z,6.93
2017-04-16T11:47:42.209Z,10.19
2017-04-16T11:48:40.013Z,8.03
2017-04-16T11:49:37.864Z,7.96
2017-04-16T11:50:35.707Z,6.76
2017-04-16T11:51:33.562Z,6.93
2017-04-16T11:52:31.556Z,6.61
2017-04-16T11:53:29.399Z,7.79
2017-04-16T11:54:27.377Z,6.77
2017-04-16T11:55:25.265Z,5.24
2017-04-16T11:56:23.261Z,6.77
2017-04-16T11:57:21.204Z,6.44
2017-04-16T11:58:19.070Z,5.19
2017-04-16T11:59:16.940Z,4.71
2017-04-16T12:00:14.958Z,6.24
2017-04-16T12:01:12.784Z,5.43
2017-04-16T12:02:10.634Z,6.69
2017-04-16T12:03:08.482Z,5.64
2017-04-16T12:04:06.348Z,5.71
2017-04-16T12:05:04.175Z,5.76
2017-04-16T12:06:01.998Z,6.07
2017-04-16T12:06:59.853Z,4.90
2017-04-16T12:07:57.744Z,5.57
2017-04-16T12:08:55.570Z,6.03
2017-04-16T12:09:53.420Z,5.11
2017-04-16T12:10:51.349Z,4.31
2017-04-16T12:11:49.228Z,5.09
2017-04-16T12:12:47.080Z,7.09
2017-04-16T12:13:44.918Z,6.80
2017-04-16T12:14:42.791Z,4.66
2017-04-16T12:15:40.707Z,4.86
2017-04-16T12:16:38.548Z,4.87
2017-04-16T12:17:36.457Z,4.87
2017-04-16T12:18:34.371Z,9.63
2017-04-16T12:19:32.241Z,5.13
2017-04-16T12:20:30.096Z,6.63
2017-04-16T12:21:27.993Z,4.56
2017-04-16T12:22:25.830Z,5.53
2017-04-16T12:23:23.801Z,4.84
2017-04-16T12:24:21.744Z,5.60
2017-04-16T12:25:19.576Z,5.59
2017-04-16T12:26:17.412Z,4.96
2017-04-16T12:27:15.290Z,6.26
2017-04-16T12:28:13.244Z,5.56
2017-04-16T12:29:11.106Z,9.46
2017-04-16T12:30:09.001Z,10.09
2017-04-16T12:31:06.934Z,4.84
2017-04-16T12:32:04.821Z,7.96
2017-04-16T12:33:02.878Z,4.76
2017-04-16T12:34:00.854Z,4.70
2017-04-16T12:34:58.850Z,4.23
2017-04-16T12:35:56.754Z,5.99
2017-04-16T12:36:54.628Z,5.56
2017-04-16T12:37:52.479Z,3.99
2017-04-16T12:38:50.327Z,5.97
2017-04-16T12:39:48.206Z,4.13
2017-04-16T12:40:46.069Z,4.99
2017-04-16T12:41:44.832Z,5.14
2017-04-16T12:42:42.720Z,4.67
2017-04-16T12:43:40.709Z,5.14
2017-04-16T12:44:39.081Z,3.63
2017-04-16T12:45:36.965Z,4.79
2017-04-16T12:46:34.856Z,3.80
2017-04-16T12:47:32.727Z,3.57
2017-04-16T12:48:30.621Z,5.94
2017-04-16T12:49:28.509Z,3.90
2017-04-16T12:50:27.617Z,6.06